createdAt,value
2023-03-26T00:03:07.758Z,7.63
2023-03-26T00:08:11.236Z,7.60
2023-03-26T00:13:15.028Z,7.59
2023-03-26T00:18:20.099Z,7.55
2023-03-26T00:23:23.102Z,7.54
2023-03-26T00:28:26.401Z,7.51
2023-03-26T00:33:38.276Z,7.53
2023-03-26T00:38:42.071Z,7.51
2023-03-26T00:43:48.546Z,7.52
2023-03-26T00:48:53.941Z,7.51
2023-03-26T00:53:58.070Z,7.50
2023-03-26T00:59:01.201Z,7.52
2023-03-26T01:04:30.550Z,7.50
2023-03-26T01:09:50.198Z,7.47
2023-03-26T01:14:55.266Z,7.44
2023-03-26T01:20:13.312Z,7.44
2023-03-26T01:25:19.150Z,7.39
2023-03-26T01:30:28.520Z,7.32
2023-03-26T01:35:42.389Z,7.30
2023-03-26T01:40:50.482Z,7.26
2023-03-26T01:45:54.109Z,7.18
2023-03-26T01:51:00.261Z,7.11
2023-03-26T01:56:15.280Z,7.07
2023-03-26T02:01:27.862Z,7.02
2023-03-26T02:06:38.442Z,6.97
2023-03-26T02:11:44.934Z,6.96
2023-03-26T02:16:48.693Z,6.95
2023-03-26T02:21:52.083Z,6.93
2023-03-26T02:27:02.225Z,6.90
2023-03-26T02:32:07.938Z,6.90
2023-03-26T02:37:11.358Z,6.88
2023-03-26T02:42:22.330Z,6.85
2023-03-26T02:47:26.376Z,6.90
2023-03-26T02:52:30.613Z,6.91
2023-03-26T02:57:38.649Z,6.96
2023-03-26T03:02:41.699Z,6.99
2023-03-26T03:08:08.133Z,7.03
2023-03-26T03:13:15.769Z,7.06
2023-03-26T03:18:18.912Z,7.08
2023-03-26T03:23:22.199Z,7.10
2023-03-26T03:28:31.659Z,7.13
2023-03-26T03:33:35.700Z,7.16
2023-03-26T03:38:38.922Z,7.18
2023-03-26T03:43:43.449Z,7.21
2023-03-26T03:48:51.037Z,7.25
2023-03-26T03:54:06.379Z,7.23
2023-03-26T03:59:39.144Z,7.27
2023-03-26T04:04:53.430Z,7.29
2023-03-26T04:09:59.905Z,7.28
2023-03-26T04:15:08.626Z,7.23
2023-03-26T04:20:15.543Z,7.20
2023-03-26T04:25:21.395Z,7.19
2023-03-26T04:30:34.425Z,7.20
2023-03-26T04:35:48.421Z,7.17
2023-03-26T04:40:53.429Z,7.12
2023-03-26T04:46:12.546Z,7.07
2023-03-26T04:51:27.254Z,7.04
2023-03-26T04:56:43.223Z,7.04
2023-03-26T05:01:51.502Z,7.04
2023-03-26T05:06:54.566Z,7.02
2023-03-26T05:12:09.253Z,6.98
2023-03-26T05:17:26.317Z,7.01
2023-03-26T05:22:29.490Z,6.99
2023-03-26T05:27:48.338Z,6.98
2023-03-26T05:32:53.143Z,6.98
2023-03-26T05:38:01.239Z,6.98
2023-03-26T05:43:10.792Z,7.00
2023-03-26T05:48:24.793Z,7.01
2023-03-26T05:53:28.485Z,6.87
2023-03-26T05:59:06.877Z,6.99
2023-03-26T06:04:34.633Z,7.04
2023-03-26T06:09:56.299Z,7.04
2023-03-26T06:14:59.287Z,7.04
2023-03-26T06:20:18.016Z,7.05
2023-03-26T06:25:24.515Z,7.04
2023-03-26T06:30:38.721Z,7.01
2023-03-26T06:36:02.354Z,7.02
2023-03-26T06:41:13.422Z,7.03
2023-03-26T06:46:16.852Z,7.09
2023-03-26T06:51:30.208Z,7.09
2023-03-26T06:56:53.848Z,7.05
2023-03-26T07:02:16.998Z,7.20
2023-03-26T07:07:46.467Z,7.19
2023-03-26T07:13:09.412Z,7.15
2023-03-26T07:18:35.319Z,7.14
2023-03-26T07:23:41.660Z,7.30
2023-03-26T07:29:19.279Z,7.30
2023-03-26T07:34:58.306Z,7.28
2023-03-26T07:40:29.823Z,7.22
2023-03-26T07:46:05.466Z,7.08
2023-03-26T07:51:21.795Z,7.18
2023-03-26T07:56:36.205Z,7.10
2023-03-26T08:02:22.144Z,7.07
2023-03-26T08:07:48.765Z,6.99
2023-03-26T08:13:11.153Z,7.08
2023-03-26T08:18:32.461Z,7.01
2023-03-26T08:23:50.687Z,6.92
2023-03-26T08:29:04.709Z,6.98
2023-03-26T08:34:11.987Z,6.90
2023-03-26T08:39:17.431Z,7.16
2023-03-26T08:44:55.146Z,7.08
2023-03-26T08:50:23.318Z,7.06
2023-03-26T08:55:41.505Z,7.03
2023-03-26T09:01:16.447Z,6.96
2023-03-26T09:06:52.438Z,6.96
2023-03-26T09:12:28.194Z,6.97
2023-03-26T09:17:59.584Z,7.07
2023-03-26T09:23:26.480Z,7.21
2023-03-26T09:29:03.436Z,7.35
2023-03-26T09:34:29.367Z,7.72
2023-03-26T09:39:49.732Z,7.66
2023-03-26T09:45:23.642Z,7.84
2023-03-26T09:50:42.559Z,8.07
2023-03-26T09:56:09.953Z,8.02
2023-03-26T10:01:26.467Z,8.11
2023-03-26T10:06:52.227Z,8.06
2023-03-26T10:12:12.544Z,8.26
2023-03-26T10:17:38.458Z,8.38
2023-03-26T10:22:55.563Z,8.16
2023-03-26T10:28:09.350Z,8.21
2023-03-26T10:33:31.102Z,8.32
2023-03-26T10:38:50.532Z,7.97
2023-03-26T10:44:23.600Z,7.90
2023-03-26T10:49:52.217Z,8.04
2023-03-26T10:55:03.582Z,8.45
2023-03-26T11:00:23.300Z,8.35
2023-03-26T11:05:45.711Z,8.22
2023-03-26T11:10:55.747Z,8.11
2023-03-26T11:16:06.019Z,8.20
2023-03-26T11:21:19.573Z,8.45
2023-03-26T11:26:30.431Z,8.74
2023-03-26T11:31:51.107Z,8.74
2023-03-26T11:36:58.602Z,8.65
2023-03-26T11:42:08.482Z,8.61
2023-03-26T11:47:24.660Z,8.66
2023-03-26T11:52:28.959Z,8.82
2023-03-26T11:57:37.628Z,8.77
2023-03-26T12:02:47.797Z,9.09
2023-03-26T12:07:55.899Z,9.35
2023-03-26T12:13:05.771Z,9.65
2023-03-26T12:18:25.769Z,9.82
2023-03-26T12:23:39.649Z,9.86
2023-03-26T12:28:48.272Z,9.91
2023-03-26T12:34:10.155Z,9.93
2023-03-26T12:40:09.141Z,10.26
2023-03-26T12:45:01.012Z,10.59
2023-03-26T12:50:09.618Z,10.35
2023-03-26T12:55:30.069Z,10.86
2023-03-26T13:00:45.675Z,10.78
2023-03-26T13:06:00.463Z,10.82
2023-03-26T13:11:10.961Z,10.41
2023-03-26T13:16:23.452Z,10.46
2023-03-26T13:21:37.474Z,10.44
2023-03-26T13:26:55.258Z,10.47
2023-03-26T13:32:07.164Z,10.63
2023-03-26T13:37:20.096Z,10.32
2023-03-26T13:42:40.183Z,9.19
2023-03-26T13:47:47.957Z,7.63
2023-03-26T13:52:57.329Z,7.34
2023-03-26T13:58:07.250Z,7.23
2023-03-26T14:03:20.690Z,7.32
2023-03-26T14:08:32.723Z,7.49
2023-03-26T14:13:43.692Z,7.97
2023-03-26T14:18:55.196Z,8.40
2023-03-26T14:24:12.831Z,8.32
2023-03-26T14:29:31.783Z,9.06
2023-03-26T14:34:51.772Z,9.23
2023-03-26T14:40:24.837Z,8.87
2023-03-26T14:45:54.970Z,8.67
2023-03-26T14:51:08.926Z,8.30
2023-03-26T14:56:39.741Z,7.88
2023-03-26T15:02:20.329Z,7.70
2023-03-26T15:07:58.908Z,7.77
2023-03-26T15:13:32.779Z,7.78
2023-03-26T15:19:05.579Z,7.73
2023-03-26T15:24:34.024Z,7.75
2023-03-26T15:30:25.054Z,7.76
2023-03-26T15:35:57.765Z,7.96
2023-03-26T15:41:17.519Z,8.05
2023-03-26T15:46:33.891Z,8.07
2023-03-26T15:51:49.529Z,8.13
2023-03-26T15:57:01.915Z,8.09
2023-03-26T16:02:19.934Z,8.00
2023-03-26T16:07:47.210Z,8.01
2023-03-26T16:13:15.577Z,7.91
2023-03-26T16:18:30.984Z,7.68
2023-03-26T16:23:53.773Z,7.63
2023-03-26T16:29:19.112Z,7.63
2023-03-26T16:34:31.776Z,7.62
2023-03-26T16:39:43.613Z,7.60
2023-03-26T16:45:07.556Z,7.55
2023-03-26T16:50:25.968Z,7.47
2023-03-26T16:55:41.599Z,7.49
2023-03-26T17:00:49.224Z,7.45
2023-03-26T17:06:06.851Z,7.47
2023-03-26T17:11:23.164Z,7.44
2023-03-26T17:16:33.454Z,7.37
2023-03-26T17:21:49.295Z,7.32
2023-03-26T17:27:00.967Z,7.27
2023-03-26T17:32:09.791Z,7.27
2023-03-26T17:37:28.935Z,7.22
2023-03-26T17:42:33.086Z,7.14
2023-03-26T17:47:40.516Z,7.06
2023-03-26T17:52:57.376Z,6.99
2023-03-26T17:58:04.869Z,6.94
2023-03-26T18:03:12.676Z,6.84
2023-03-26T18:08:50.681Z,6.79
2023-03-26T18:14:23.107Z,6.77
2023-03-26T18:19:32.956Z,6.73
2023-03-26T18:24:42.144Z,6.71
2023-03-26T18:29:47.905Z,6.71
2023-03-26T18:34:56.964Z,6.68
2023-03-26T18:40:10.214Z,6.66
2023-03-26T18:45:25.895Z,6.63
2023-03-26T18:50:36.755Z,6.64
2023-03-26T18:55:50.499Z,6.59
2023-03-26T19:00:59.142Z,6.56
2023-03-26T19:06:04.947Z,6.50
2023-03-26T19:11:12.908Z,6.47
2023-03-26T19:16:23.343Z,6.41
2023-03-26T19:21:26.685Z,6.39
2023-03-26T19:26:36.716Z,6.37
2023-03-26T19:31:40.386Z,6.35
2023-03-26T19:36:58.894Z,6.32
2023-03-26T19:42:07.109Z,6.32
2023-03-26T19:47:29.123Z,6.31
2023-03-26T19:52:41.167Z,6.29
2023-03-26T19:57:46.176Z,6.26
2023-03-26T20:02:49.290Z,6.21
2023-03-26T20:07:55.741Z,6.20
2023-03-26T20:13:00.967Z,6.20
2023-03-26T20:18:04.979Z,6.15
2023-03-26T20:23:15.007Z,6.15
2023-03-26T20:28:20.609Z,6.15
2023-03-26T20:33:26.639Z,6.12
2023-03-26T20:38:38.927Z,6.06
2023-03-26T20:43:44.109Z,6.03
2023-03-26T20:48:48.055Z,5.99
2023-03-26T20:53:51.249Z,5.91
2023-03-26T20:59:09.846Z,5.86
2023-03-26T21:04:14.799Z,5.77
2023-03-26T21:09:24.162Z,5.72
2023-03-26T21:14:32.685Z,5.63
2023-03-26T21:19:38.067Z,5.58
2023-03-26T21:24:50.698Z,5.45
2023-03-26T21:30:03.838Z,5.37
2023-03-26T21:35:08.445Z,5.31
2023-03-26T21:40:16.979Z,5.27
2023-03-26T21:45:24.347Z,5.24
2023-03-26T21:50:28.004Z,5.22
2023-03-26T21:55:40.680Z,5.16
2023-03-26T22:00:58.001Z,5.11
2023-03-26T22:06:08.266Z,5.08
2023-03-26T22:11:12.695Z,5.05
2023-03-26T22:16:17.488Z,4.97
2023-03-26T22:21:23.353Z,4.95
2023-03-26T22:26:28.246Z,4.93
2023-03-26T22:31:34.740Z,4.85
2023-03-26T22:36:39.878Z,4.77
2023-03-26T22:41:43.246Z,4.63
2023-03-26T22:46:49.113Z,4.46
2023-03-26T22:51:53.521Z,4.37
2023-03-26T22:56:56.602Z,4.29
2023-03-26T23:02:02.870Z,4.18
2023-03-26T23:07:06.158Z,3.98
2023-03-26T23:12:09.150Z,3.74
2023-03-26T23:17:14.591Z,3.56
2023-03-26T23:22:18.004Z,3.44
2023-03-26T23:27:22.656Z,3.28
2023-03-26T23:32:28.002Z,3.18
2023-03-26T23:37:34.774Z,3.07
2023-03-26T23:42:38.259Z,2.94
2023-03-26T23:47:43.044Z,2.83
2023-03-26T23:52:46.943Z,2.76
2023-03-26T23:57:51.773Z,2.67
